createdAt,value
2018-07-11T00:01:18.863Z,70.29
2018-07-11T00:03:53.535Z,70.12
2018-07-11T00:06:28.900Z,70.01
2018-07-11T00:09:02.008Z,70.19
2018-07-11T00:11:32.042Z,70.38
2018-07-11T00:14:03.934Z,70.91
2018-07-11T00:16:37.550Z,71.52
2018-07-11T00:19:09.216Z,71.88
2018-07-11T00:21:42.193Z,72.27
2018-07-11T00:24:12.784Z,72.71
2018-07-11T00:26:45.721Z,73.53
2018-07-11T00:29:20.344Z,73.30
2018-07-11T00:31:52.044Z,73.71
2018-07-11T00:34:22.134Z,73.84
2018-07-11T00:36:55.987Z,73.84
2018-07-11T00:39:27.513Z,73.51
2018-07-11T00:42:02.303Z,74.45
2018-07-11T00:44:36.230Z,74.28
2018-07-11T00:47:09.821Z,74.05
2018-07-11T00:49:43.677Z,73.83
2018-07-11T00:52:17.240Z,73.46
2018-07-11T00:54:49.388Z,74.15
2018-07-11T00:57:23.197Z,74.25
2018-07-11T00:59:59.260Z,74.22
2018-07-11T01:02:30.782Z,74.31
2018-07-11T01:05:00.833Z,74.10
2018-07-11T01:07:32.590Z,73.90
2018-07-11T01:10:02.575Z,74.70
2018-07-11T01:12:37.115Z,75.03
2018-07-11T01:15:09.002Z,74.43
2018-07-11T01:17:57.864Z,74.10
2018-07-11T01:20:30.932Z,74.68
2018-07-11T01:23:04.156Z,75.24
2018-07-11T01:25:36.065Z,74.49
2018-07-11T01:28:07.757Z,74.65
2018-07-11T01:30:40.756Z,75.58
2018-07-11T01:33:12.704Z,75.08
2018-07-11T01:35:46.983Z,74.88
2018-07-11T01:38:18.703Z,74.78
2018-07-11T01:40:52.371Z,75.27
2018-07-11T01:43:23.886Z,75.50
2018-07-11T01:45:56.818Z,75.92
2018-07-11T01:48:29.842Z,76.28
2018-07-11T01:51:01.545Z,76.29
2018-07-11T01:53:33.083Z,76.19
2018-07-11T01:56:04.664Z,76.40
2018-07-11T01:58:37.836Z,76.70
2018-07-11T02:01:11.085Z,76.71
2018-07-11T02:03:43.125Z,76.72
2018-07-11T02:06:14.624Z,76.79
2018-07-11T02:08:46.311Z,77.20
2018-07-11T02:11:17.820Z,77.45
2018-07-11T02:13:49.473Z,77.72
2018-07-11T02:16:21.076Z,77.48
2018-07-11T02:18:52.474Z,77.79
2018-07-11T02:21:25.385Z,77.86
2018-07-11T02:23:58.722Z,77.87
2018-07-11T02:26:28.574Z,78.31
2018-07-11T02:29:04.136Z,78.19
2018-07-11T02:31:37.677Z,78.45
2018-07-11T02:34:10.842Z,78.56
2018-07-11T02:36:42.172Z,78.91
2018-07-11T02:39:15.632Z,79.68
2018-07-11T02:41:47.447Z,79.68
2018-07-11T02:44:21.597Z,79.73
2018-07-11T02:47:12.205Z,79.93
2018-07-11T02:49:44.602Z,79.86
2018-07-11T02:52:15.913Z,79.77
2018-07-11T02:54:48.653Z,79.89
2018-07-11T02:57:22.392Z,79.15
2018-07-11T02:59:55.756Z,78.97
2018-07-11T03:02:27.974Z,79.82
2018-07-11T03:04:59.065Z,79.70
2018-07-11T03:07:30.848Z,79.67
2018-07-11T03:10:02.202Z,79.73
2018-07-11T03:12:35.484Z,79.18
2018-07-11T03:15:10.458Z,79.09
2018-07-11T03:17:42.732Z,78.81
2018-07-11T03:20:16.246Z,79.06
2018-07-11T03:22:46.422Z,79.27
2018-07-11T03:25:20.854Z,79.48
2018-07-11T03:27:50.847Z,79.67
2018-07-11T03:30:24.015Z,80.05
2018-07-11T03:32:57.057Z,79.94
2018-07-11T03:35:28.582Z,80.26
2018-07-11T03:38:00.268Z,80.39
2018-07-11T03:40:33.952Z,80.63
2018-07-11T03:43:07.363Z,80.20
2018-07-11T03:45:40.571Z,80.18
2018-07-11T03:48:12.122Z,79.81
2018-07-11T03:50:44.343Z,79.87
2018-07-11T03:53:16.262Z,80.50
2018-07-11T03:55:47.975Z,80.27
2018-07-11T03:58:21.349Z,79.82
2018-07-11T04:00:52.666Z,79.24
2018-07-11T04:03:22.778Z,78.78
2018-07-11T04:05:56.039Z,78.62
2018-07-11T04:08:27.713Z,77.05
2018-07-11T04:11:00.943Z,74.04
2018-07-11T04:13:31.117Z,71.28
2018-07-11T04:16:05.622Z,70.22
2018-07-11T04:18:37.176Z,68.91
2018-07-11T04:21:09.547Z,66.40
2018-07-11T04:23:42.981Z,65.45
2018-07-11T04:26:16.448Z,64.08
2018-07-11T04:28:49.582Z,62.85
2018-07-11T04:31:24.282Z,60.74
2018-07-11T04:33:57.461Z,60.24
2018-07-11T04:36:31.995Z,59.98
2018-07-11T04:39:03.539Z,58.15
2018-07-11T04:41:34.931Z,57.62
2018-07-11T04:44:06.514Z,57.41
2018-07-11T04:46:37.308Z,56.90
2018-07-11T04:49:10.760Z,55.38
2018-07-11T04:51:42.616Z,54.45
2018-07-11T04:54:14.115Z,54.54
2018-07-11T04:56:45.748Z,51.48
2018-07-11T04:59:18.961Z,51.01
2018-07-11T05:01:48.929Z,51.55
2018-07-11T05:04:19.913Z,51.65
2018-07-11T05:06:54.853Z,54.71
2018-07-11T05:09:27.888Z,54.39
2018-07-11T05:11:59.289Z,53.55
2018-07-11T05:14:31.433Z,52.70
2018-07-11T05:17:04.307Z,52.40
2018-07-11T05:19:35.627Z,50.83
2018-07-11T05:22:07.358Z,52.12
2018-07-11T05:24:38.862Z,51.47
2018-07-11T05:27:11.313Z,51.99
2018-07-11T05:29:44.756Z,48.72
2018-07-11T05:32:17.705Z,49.95
2018-07-11T05:34:50.560Z,49.22
2018-07-11T05:37:23.555Z,48.79
2018-07-11T05:39:55.162Z,49.41
2018-07-11T05:42:26.498Z,50.72
2018-07-11T05:44:59.354Z,48.49
2018-07-11T05:47:30.731Z,50.10
2018-07-11T05:50:03.512Z,49.01
2018-07-11T05:52:36.652Z,48.39
2018-07-11T05:55:09.538Z,48.16
2018-07-11T05:57:42.457Z,47.70
2018-07-11T06:00:15.334Z,48.30
2018-07-11T06:02:48.322Z,47.88
2018-07-11T06:05:21.381Z,48.54
2018-07-11T06:07:54.215Z,48.35
2018-07-11T06:10:27.177Z,50.15
2018-07-11T06:13:00.070Z,47.58
2018-07-11T06:15:34.367Z,47.40
2018-07-11T06:18:06.449Z,46.54
2018-07-11T06:20:36.391Z,47.28
2018-07-11T06:23:07.875Z,47.33
2018-07-11T06:25:38.030Z,43.89
2018-07-11T06:28:09.508Z,44.93
2018-07-11T06:30:43.883Z,44.43
2018-07-11T06:33:16.759Z,45.56
2018-07-11T06:35:49.080Z,42.51
2018-07-11T06:38:20.460Z,44.93
2018-07-11T06:40:55.701Z,43.65
2018-07-11T06:43:30.044Z,42.75
2018-07-11T06:46:03.560Z,42.91
2018-07-11T06:48:36.427Z,42.60
2018-07-11T06:51:09.389Z,43.32
2018-07-11T06:53:42.269Z,42.96
2018-07-11T06:56:12.384Z,42.48
2018-07-11T06:58:43.733Z,40.33
2018-07-11T07:01:18.382Z,39.57
2018-07-11T07:03:52.154Z,40.13
2018-07-11T07:06:25.123Z,40.76
2018-07-11T07:08:59.574Z,40.10
2018-07-11T07:11:30.939Z,37.71
2018-07-11T07:14:03.749Z,38.38
2018-07-11T07:16:37.062Z,37.15
2018-07-11T07:19:09.990Z,36.41
2018-07-11T07:21:42.916Z,38.92
2018-07-11T07:24:15.846Z,37.63
2018-07-11T07:26:49.128Z,38.54
2018-07-11T07:29:23.489Z,37.74
2018-07-11T07:31:56.629Z,36.81
2018-07-11T07:34:28.062Z,34.65
2018-07-11T07:37:00.903Z,37.31
2018-07-11T07:39:32.921Z,35.53
2018-07-11T07:42:04.454Z,34.58
2018-07-11T07:44:35.853Z,34.33
2018-07-11T07:47:07.730Z,32.70
2018-07-11T07:49:39.267Z,33.14
2018-07-11T07:52:13.633Z,33.73
2018-07-11T07:54:45.803Z,31.50
2018-07-11T07:57:15.696Z,33.68
2018-07-11T07:59:47.095Z,32.89
2018-07-11T08:02:19.182Z,31.42
2018-07-11T08:04:52.454Z,32.58
2018-07-11T08:07:25.277Z,32.76
2018-07-11T08:09:55.703Z,32.63
2018-07-11T08:12:27.142Z,32.11
2018-07-11T08:15:02.042Z,32.43
2018-07-11T08:17:36.205Z,30.81
2018-07-11T08:20:10.843Z,32.30
2018-07-11T08:23:08.237Z,32.13
2018-07-11T08:26:16.185Z,32.15
2018-07-11T08:29:27.159Z,32.97
2018-07-11T08:32:44.352Z,34.17
2018-07-11T08:35:52.910Z,34.92
2018-07-11T08:39:12.022Z,36.35
2018-07-11T08:42:22.225Z,37.21
2018-07-11T08:45:20.914Z,36.76
2018-07-11T08:48:21.308Z,37.57
2018-07-11T08:51:42.733Z,37.96
2018-07-11T08:54:37.898Z,37.13
2018-07-11T08:57:37.772Z,40.49
2018-07-11T09:00:34.890Z,40.19
2018-07-11T09:03:33.185Z,40.72
2018-07-11T09:06:38.201Z,40.61
2018-07-11T09:09:57.466Z,41.33
2018-07-11T09:13:05.518Z,36.66
2018-07-11T09:16:00.289Z,36.27
2018-07-11T09:19:15.948Z,36.20
2018-07-11T09:22:16.791Z,35.13
2018-07-11T09:24:54.024Z,38.40
2018-07-11T09:27:27.016Z,39.39
2018-07-11T09:29:58.663Z,43.28
2018-07-11T09:32:30.291Z,41.81
2018-07-11T09:35:01.865Z,40.49
2018-07-11T09:37:34.871Z,40.41
2018-07-11T09:40:06.200Z,40.78
2018-07-11T09:42:38.664Z,40.37
2018-07-11T09:45:09.565Z,42.46
2018-07-11T09:47:43.881Z,42.48
2018-07-11T09:50:18.467Z,43.78
2018-07-11T09:52:51.426Z,42.76
2018-07-11T09:55:24.414Z,43.33
2018-07-11T09:57:57.606Z,43.32
2018-07-11T10:00:47.990Z,42.62
2018-07-11T10:03:20.079Z,45.48
2018-07-11T10:05:51.668Z,44.18
2018-07-11T10:08:24.562Z,44.18
2018-07-11T10:10:57.550Z,44.31
2018-07-11T10:13:29.041Z,44.90
2018-07-11T10:16:01.863Z,44.57
2018-07-11T10:18:34.770Z,43.69
2018-07-11T10:21:05.556Z,44.37
2018-07-11T10:23:40.681Z,45.00
2018-07-11T10:26:13.655Z,44.42
2018-07-11T10:28:44.395Z,45.37
2018-07-11T10:31:17.945Z,45.90
2018-07-11T10:33:51.098Z,45.63
2018-07-11T10:36:24.109Z,45.59
2018-07-11T10:38:57.402Z,46.62
2018-07-11T10:41:30.328Z,46.09
2018-07-11T10:44:03.228Z,44.86
2018-07-11T10:46:37.708Z,40.62
2018-07-11T10:49:09.044Z,42.48
2018-07-11T10:51:42.167Z,38.02
2018-07-11T10:54:15.513Z,40.38
2018-07-11T10:56:49.062Z,40.37
2018-07-11T10:59:22.010Z,41.25
2018-07-11T11:01:56.711Z,41.22
2018-07-11T11:04:31.027Z,42.79
2018-07-11T11:07:01.057Z,41.95
2018-07-11T11:09:33.818Z,40.11
2018-07-11T11:12:06.957Z,41.02
2018-07-11T11:14:39.820Z,40.57
2018-07-11T11:17:11.147Z,42.31
2018-07-11T11:19:44.302Z,43.07
2018-07-11T11:22:16.272Z,45.37
2018-07-11T11:24:47.735Z,43.30
2018-07-11T11:27:17.680Z,42.45
2018-07-11T11:29:52.179Z,41.55
2018-07-11T11:32:25.592Z,41.37
2018-07-11T11:34:57.343Z,43.00
2018-07-11T11:37:32.416Z,44.91
2018-07-11T11:40:04.077Z,44.80
2018-07-11T11:42:36.910Z,44.22
2018-07-11T11:45:08.360Z,43.50
2018-07-11T11:47:42.190Z,46.78
2018-07-11T11:50:15.631Z,44.19
2018-07-11T11:52:48.776Z,43.71
2018-07-11T11:55:22.121Z,43.42
2018-07-11T11:57:54.541Z,44.95
2018-07-11T12:00:26.068Z,41.51
2018-07-11T12:02:59.010Z,42.76
2018-07-11T12:05:30.474Z,44.16
2018-07-11T12:08:04.944Z,44.69
2018-07-11T12:10:35.470Z,43.07
2018-07-11T12:13:06.940Z,42.73
2018-07-11T12:15:39.202Z,43.68
2018-07-11T12:18:12.075Z,43.79
2018-07-11T12:20:45.009Z,43.93
2018-07-11T12:23:16.008Z,44.10
2018-07-11T12:26:12.244Z,43.84
2018-07-11T12:28:44.597Z,44.10
2018-07-11T12:31:16.250Z,41.50
2018-07-11T12:33:49.186Z,42.28
2018-07-11T12:36:20.618Z,42.57
2018-07-11T12:38:58.312Z,42.65
2018-07-11T12:41:30.162Z,40.79
2018-07-11T12:44:03.254Z,40.61
2018-07-11T12:46:36.333Z,38.84
2018-07-11T12:49:09.574Z,41.19
2018-07-11T12:51:42.551Z,41.27
2018-07-11T12:54:15.791Z,42.41
2018-07-11T12:56:45.832Z,43.77
2018-07-11T12:59:20.685Z,44.57
2018-07-11T13:01:52.617Z,46.07
2018-07-11T13:04:27.876Z,48.90
2018-07-11T13:06:57.088Z,52.64
2018-07-11T13:09:31.871Z,54.02
2018-07-11T13:12:06.216Z,54.94
2018-07-11T13:14:39.375Z,55.43
2018-07-11T13:17:12.299Z,55.81
2018-07-11T13:19:43.805Z,56.57
2018-07-11T13:22:15.319Z,55.00
2018-07-11T13:24:47.163Z,54.90
2018-07-11T13:27:21.065Z,54.65
2018-07-11T13:29:54.133Z,53.98
2018-07-11T13:32:29.400Z,50.64
2018-07-11T13:34:59.414Z,49.77
2018-07-11T13:37:31.490Z,49.81
2018-07-11T13:40:02.850Z,50.31
2018-07-11T13:42:35.844Z,49.22
2018-07-11T13:45:10.273Z,48.96
2018-07-11T13:47:42.517Z,49.30
2018-07-11T13:50:15.668Z,48.07
2018-07-11T13:52:47.048Z,49.22
2018-07-11T13:55:19.975Z,46.49
2018-07-11T13:57:51.455Z,47.65
2018-07-11T14:00:24.616Z,47.83
2018-07-11T14:02:56.050Z,47.18
2018-07-11T14:05:26.048Z,47.08
2018-07-11T14:07:57.566Z,46.25
2018-07-11T14:10:27.956Z,46.12
2018-07-11T14:13:00.893Z,46.31
2018-07-11T14:15:32.708Z,46.67
2018-07-11T14:18:07.161Z,45.68
2018-07-11T14:20:38.576Z,46.49
2018-07-11T14:23:11.906Z,48.95
2018-07-11T14:25:46.154Z,48.89
2018-07-11T14:28:19.201Z,48.18
2018-07-11T14:30:52.085Z,47.55
2018-07-11T14:33:25.028Z,47.73
2018-07-11T14:35:56.373Z,47.57
2018-07-11T14:38:29.527Z,45.87
2018-07-11T14:41:02.991Z,45.15
2018-07-11T14:43:35.924Z,44.52
2018-07-11T14:46:08.782Z,44.51
2018-07-11T14:48:40.449Z,45.81
2018-07-11T14:51:12.074Z,45.62
2018-07-11T14:53:44.978Z,44.68
2018-07-11T14:56:18.613Z,43.86
2018-07-11T14:58:50.132Z,45.34
2018-07-11T15:01:21.606Z,44.87
2018-07-11T15:03:55.475Z,45.67
2018-07-11T15:06:28.296Z,44.00
2018-07-11T15:09:00.869Z,42.71
2018-07-11T15:11:32.222Z,44.93
2018-07-11T15:14:05.131Z,43.66
2018-07-11T15:16:39.305Z,44.22
2018-07-11T15:19:11.157Z,41.28
2018-07-11T15:21:42.621Z,43.00
2018-07-11T15:24:12.845Z,41.42
2018-07-11T15:26:45.110Z,39.26
2018-07-11T15:29:16.609Z,42.49
2018-07-11T15:31:46.596Z,43.06
2018-07-11T15:34:21.362Z,43.86
2018-07-11T15:36:51.347Z,44.78
2018-07-11T15:39:24.527Z,44.40
2018-07-11T15:41:54.974Z,44.22
2018-07-11T15:44:26.519Z,44.55
2018-07-11T15:47:01.347Z,44.04
2018-07-11T15:49:36.271Z,44.09
2018-07-11T15:52:09.273Z,43.67
2018-07-11T15:54:43.059Z,44.87
2018-07-11T15:57:17.268Z,44.93
2018-07-11T16:00:04.778Z,43.47
2018-07-11T16:02:40.643Z,43.73
2018-07-11T16:05:12.516Z,45.64
2018-07-11T16:07:52.484Z,44.45
2018-07-11T16:10:37.166Z,44.74
2018-07-11T16:13:11.818Z,44.24
2018-07-11T16:15:46.879Z,44.57
2018-07-11T16:18:17.009Z,44.79
2018-07-11T16:20:49.060Z,41.80
2018-07-11T16:23:24.743Z,41.07
2018-07-11T16:25:56.167Z,40.24
2018-07-11T16:28:31.072Z,39.68
2018-07-11T16:31:05.467Z,39.88
2018-07-11T16:33:36.563Z,41.18
2018-07-11T16:36:09.407Z,41.22
2018-07-11T16:38:40.978Z,41.86
2018-07-11T16:41:15.414Z,40.94
2018-07-11T16:43:47.190Z,42.99
2018-07-11T16:46:20.035Z,42.83
2018-07-11T16:48:52.875Z,43.57
2018-07-11T16:51:24.579Z,43.55
2018-07-11T16:53:56.110Z,43.01
2018-07-11T16:56:26.410Z,42.54
2018-07-11T16:59:04.070Z,43.35
2018-07-11T17:01:42.691Z,44.13
2018-07-11T17:04:14.901Z,42.74
2018-07-11T17:06:45.384Z,43.27
2018-07-11T17:09:16.833Z,43.81
2018-07-11T17:11:51.937Z,43.50
2018-07-11T17:14:26.026Z,43.65
2018-07-11T17:17:05.482Z,42.83
2018-07-11T17:20:16.414Z,43.87
2018-07-11T17:23:01.420Z,44.64
2018-07-11T17:25:45.870Z,45.37
2018-07-11T17:28:17.299Z,45.66
2018-07-11T17:30:48.797Z,44.37
2018-07-11T17:33:18.721Z,44.63
2018-07-11T17:35:56.834Z,45.02
2018-07-11T17:38:31.484Z,45.69
2018-07-11T17:41:07.922Z,45.89
2018-07-11T17:43:42.031Z,46.13
2018-07-11T17:46:19.546Z,45.58
2018-07-11T17:49:38.599Z,45.46
2018-07-11T17:52:15.731Z,45.67
2018-07-11T17:55:19.996Z,45.70
2018-07-11T17:58:02.334Z,45.74
2018-07-11T18:00:53.855Z,46.34
2018-07-11T18:03:51.442Z,46.70
2018-07-11T18:06:51.861Z,47.03
2018-07-11T18:09:26.794Z,47.22
2018-07-11T18:12:28.001Z,47.97
2018-07-11T18:15:15.233Z,47.38
2018-07-11T18:18:25.406Z,48.22
2018-07-11T18:21:34.301Z,49.31
2018-07-11T18:24:29.783Z,49.07
2018-07-11T18:27:30.267Z,50.20
2018-07-11T18:30:39.144Z,50.28
2018-07-11T18:33:53.701Z,51.95
2018-07-11T18:36:57.144Z,52.05
2018-07-11T18:39:42.851Z,51.95
2018-07-11T18:42:23.523Z,52.24
2018-07-11T18:45:26.352Z,53.09
2018-07-11T18:48:36.869Z,53.66
2018-07-11T18:51:45.182Z,54.34
2018-07-11T18:54:25.668Z,55.42
2018-07-11T18:57:09.667Z,55.58
2018-07-11T19:00:42.179Z,56.23
2018-07-11T19:03:57.456Z,56.97
2018-07-11T19:07:16.880Z,56.88
2018-07-11T19:09:58.348Z,57.19
2018-07-11T19:12:38.344Z,57.41
2018-07-11T19:15:19.522Z,58.14
2018-07-11T19:18:38.075Z,57.97
2018-07-11T19:21:20.403Z,59.06
2018-07-11T19:24:08.350Z,59.54
2018-07-11T19:27:03.219Z,59.73
2018-07-11T19:30:12.045Z,60.91
2018-07-11T19:32:58.677Z,61.62
2018-07-11T19:36:06.166Z,61.79
2018-07-11T19:38:44.095Z,62.60
2018-07-11T19:41:26.721Z,62.77
2018-07-11T19:44:48.560Z,62.72
2018-07-11T19:47:44.545Z,63.03
2018-07-11T19:50:42.262Z,63.54
2018-07-11T19:53:52.338Z,63.23
2018-07-11T19:56:43.822Z,64.05
2018-07-11T19:59:15.499Z,64.33
2018-07-11T20:01:47.711Z,64.48
2018-07-11T20:04:20.667Z,64.64
2018-07-11T20:06:55.016Z,65.32
2018-07-11T20:09:28.514Z,65.75
2018-07-11T20:12:01.807Z,65.76
2018-07-11T20:14:36.290Z,66.16
2018-07-11T20:17:10.905Z,66.36
2018-07-11T20:19:42.823Z,66.50
2018-07-11T20:22:14.897Z,67.00
2018-07-11T20:24:50.013Z,66.95
2018-07-11T20:27:23.191Z,67.11
2018-07-11T20:29:53.127Z,66.72
2018-07-11T20:32:23.292Z,67.04
2018-07-11T20:34:56.276Z,67.44
2018-07-11T20:37:29.312Z,67.25
2018-07-11T20:40:02.762Z,67.88
2018-07-11T20:42:35.864Z,67.82
2018-07-11T20:45:09.306Z,67.71
2018-07-11T20:47:42.879Z,67.79
2018-07-11T20:50:14.229Z,68.05
2018-07-11T20:52:47.108Z,68.04
2018-07-11T20:55:20.179Z,67.92
2018-07-11T20:57:51.513Z,68.79
2018-07-11T21:00:59.667Z,68.92
2018-07-11T21:04:14.230Z,69.57
2018-07-11T21:07:11.496Z,69.20
2018-07-11T21:10:15.912Z,69.45
2018-07-11T21:13:34.862Z,69.17
2018-07-11T21:16:28.759Z,69.12
2018-07-11T21:19:09.891Z,69.63
2018-07-11T21:21:44.060Z,70.38
2018-07-11T21:24:16.809Z,70.33
2018-07-11T21:26:50.816Z,70.71
2018-07-11T21:29:21.621Z,70.64
2018-07-11T21:31:53.198Z,70.88
2018-07-11T21:34:26.262Z,71.08
2018-07-11T21:36:57.867Z,71.24
2018-07-11T21:39:30.979Z,71.58
2018-07-11T21:42:04.139Z,71.78
2018-07-11T21:44:37.430Z,72.35
2018-07-11T21:47:10.574Z,72.23
2018-07-11T21:49:41.936Z,72.56
2018-07-11T21:52:13.372Z,72.90
2018-07-11T21:54:47.817Z,72.72
2018-07-11T21:57:19.350Z,72.95
2018-07-11T21:59:52.457Z,73.27
2018-07-11T22:02:22.508Z,73.33
2018-07-11T22:04:54.378Z,72.99
2018-07-11T22:07:28.616Z,73.13
2018-07-11T22:10:01.168Z,72.86
2018-07-11T22:12:35.695Z,73.08
2018-07-11T22:15:09.103Z,73.65
2018-07-11T22:18:33.586Z,73.82
2018-07-11T22:21:03.597Z,74.14
2018-07-11T22:23:33.481Z,74.83
2018-07-11T22:26:02.181Z,74.52
2018-07-11T22:28:32.380Z,74.37
2018-07-11T22:31:00.912Z,73.98
2018-07-11T22:33:29.269Z,73.80
2018-07-11T22:35:59.219Z,74.42
2018-07-11T22:38:28.981Z,74.21
2018-07-11T22:40:58.789Z,74.66
2018-07-11T22:43:27.706Z,74.61
2018-07-11T22:45:56.513Z,75.46
2018-07-11T22:48:26.307Z,76.53
2018-07-11T22:50:56.312Z,77.52
2018-07-11T22:53:25.420Z,77.72
2018-07-11T22:55:55.183Z,77.54
2018-07-11T22:58:25.034Z,78.11
2018-07-11T23:00:53.552Z,78.57
2018-07-11T23:03:22.013Z,78.64
2018-07-11T23:05:51.828Z,78.29
2018-07-11T23:08:21.963Z,78.11
2018-07-11T23:10:50.289Z,78.67
2018-07-11T23:13:20.205Z,79.04
2018-07-11T23:15:49.961Z,79.40
2018-07-11T23:18:18.429Z,79.93
2018-07-11T23:20:46.906Z,80.26
2018-07-11T23:23:17.034Z,80.31
2018-07-11T23:25:45.369Z,80.90
2018-07-11T23:28:15.281Z,81.06
2018-07-11T23:30:45.160Z,81.14
2018-07-11T23:33:14.980Z,80.70
2018-07-11T23:35:43.952Z,80.47
2018-07-11T23:38:13.768Z,80.77
2018-07-11T23:40:43.652Z,80.71
2018-07-11T23:43:14.050Z,81.16
2018-07-11T23:45:43.895Z,81.37
2018-07-11T23:48:12.253Z,81.18
2018-07-11T23:50:42.099Z,81.31
2018-07-11T23:53:11.078Z,82.02
2018-07-11T23:55:39.446Z,81.64
2018-07-11T23:58:08.415Z,81.58
